Time;durP1;ratioP1;P1;durP2;ratioP2;P2;SDS_P1;SDS_P2;PMS_P1;PMS_P2;Temp;Humidity;BMP_temperature;BMP_pressure;BME280_temperature;BME280_humidity;BME280_pressure;Samples;Min_cycle;Max_cycle;Signal;HPM_P1;HPM_P2
2021/04/20 00:01:35;;;;;;;48.45;29.42;;;;;;;10.54;69.10;100409.41;1813077;79;20959;-77
2021/04/20 00:04:06;;;;;;;49.33;29.40;;;;;;;10.51;69.66;100410.89;1805253;79;21027;-78
2021/04/20 00:06:34;;;;;;;47.73;30.52;;;;;;;10.47;70.02;100397.63;1803637;79;21380;-78
2021/04/20 00:09:08;;;;;;;44.58;28.60;;;;;;;10.45;70.48;100396.02;1803608;79;21753;-78
2021/04/20 00:11:37;;;;;;;46.98;27.87;;;;;;;10.45;70.81;100401.26;1803687;79;20963;-76
2021/04/20 00:14:07;;;;;;;49.77;30.30;;;;;;;10.45;70.77;100413.92;1803621;79;21117;-77
2021/04/20 00:16:35;;;;;;;47.78;28.55;;;;;;;10.45;70.90;100409.13;1803564;79;21492;-77
2021/04/20 00:19:06;;;;;;;44.40;28.23;;;;;;;10.46;70.94;100413.45;1803722;79;21421;-76
2021/04/20 00:21:34;;;;;;;44.40;28.52;;;;;;;10.46;70.87;100425.24;1803692;79;21483;-76
2021/04/20 00:24:03;;;;;;;43.65;29.35;;;;;;;10.44;70.83;100420.56;1803536;79;20999;-76
2021/04/20 00:26:31;;;;;;;44.45;30.05;;;;;;;10.41;70.78;100414.21;1803589;79;20979;-76
2021/04/20 00:28:59;;;;;;;46.73;28.05;;;;;;;10.37;70.98;100403.90;1803711;79;21481;-77
2021/04/20 00:31:28;;;;;;;38.75;26.02;;;;;;;10.39;70.95;100388.56;1803619;79;21524;-77
2021/04/20 00:33:57;;;;;;;43.58;26.20;;;;;;;10.40;70.87;100383.67;1803629;79;21277;-77
2021/04/20 00:36:25;;;;;;;41.90;27.20;;;;;;;10.42;70.64;100383.11;1803520;79;21101;-78
2021/04/20 00:38:53;;;;;;;47.08;30.20;;;;;;;10.43;70.48;100378.27;1803623;79;20983;-78
2021/04/20 00:41:20;;;;;;;44.50;28.10;;;;;;;10.46;70.45;100377.58;1803532;79;21488;-77
2021/04/20 00:43:48;;;;;;;44.77;27.87;;;;;;;10.45;70.68;100374.59;1751121;79;21349;-78
2021/04/20 00:46:19;;;;;;;47.65;30.32;;;;;;;10.42;70.76;100364.29;1803739;79;22022;-77
2021/04/20 00:48:47;;;;;;;50.83;31.62;;;;;;;10.38;70.61;100362.80;1803549;79;20962;-77
2021/04/20 00:51:17;;;;;;;45.70;27.15;;;;;;;10.32;70.73;100357.48;1803654;79;20931;-77
2021/04/20 00:53:46;;;;;;;56.80;31.82;;;;;;;10.24;70.78;100354.47;1803688;79;20935;-76
2021/04/20 00:56:19;;;;;;;46.92;29.60;;;;;;;10.16;70.86;100339.72;1803672;79;20947;-76
2021/04/20 00:58:47;;;;;;;43.42;28.40;;;;;;;10.11;71.04;100334.73;1803752;79;21367;-77
2021/04/20 01:01:15;;;;;;;44.83;26.20;;;;;;;10.09;71.06;100323.98;1803534;79;20900;-77
2021/04/20 01:03:43;;;;;;;53.28;28.17;;;;;;;10.08;70.74;100317.91;1803398;79;21082;-78
2021/04/20 01:06:11;;;;;;;49.27;28.42;;;;;;;10.08;70.76;100310.52;1803628;79;21030;-78
2021/04/20 01:08:40;;;;;;;48.25;27.15;;;;;;;10.06;70.88;100301.44;1803599;79;20938;-78
2021/04/20 01:11:09;;;;;;;47.03;26.45;;;;;;;10.02;70.74;100301.73;1803648;79;21257;-78
2021/04/20 01:13:37;;;;;;;43.02;25.65;;;;;;;9.95;70.81;100316.99;1781173;79;21405;-79
2021/04/20 01:16:05;;;;;;;49.42;26.97;;;;;;;9.88;71.08;100315.70;1803653;79;20939;-78
2021/04/20 01:18:37;;;;;;;45.03;24.67;;;;;;;9.83;71.28;100315.98;1803662;79;21006;-77
2021/04/20 01:21:11;;;;;;;46.65;27.07;;;;;;;9.79;71.33;100318.89;1803867;79;21341;-78
2021/04/20 01:24:13;;;;;;;42.43;25.27;;;;;;;9.75;71.51;100317.75;1804592;79;21353;-77
2021/04/20 01:26:45;;;;;;;48.65;27.42;;;;;;;9.71;71.33;100316.73;1804737;79;21014;-79
2021/04/20 01:29:13;;;;;;;43.13;25.10;;;;;;;9.67;71.26;100315.23;1803837;79;21030;-78
2021/04/20 01:31:43;;;;;;;37.60;23.92;;;;;;;9.66;71.37;100307.84;1803796;79;21027;-78
2021/04/20 01:34:13;;;;;;;42.43;24.65;;;;;;;9.64;71.35;100303.64;1803996;79;21018;-80
2021/04/20 01:36:41;;;;;;;54.45;29.50;;;;;;;9.62;71.54;100308.96;1803824;79;21364;-78
2021/04/20 01:39:11;;;;;;;46.48;25.57;;;;;;;9.60;71.85;100305.59;1803677;79;20943;-79
2021/04/20 01:41:39;;;;;;;46.35;25.92;;;;;;;9.55;72.15;100305.88;1803699;79;21025;-78
2021/04/20 01:44:08;;;;;;;44.73;26.97;;;;;;;9.54;72.15;100313.84;1803699;79;20928;-78
2021/04/20 01:46:36;;;;;;;44.80;25.75;;;;;;;9.53;72.21;100315.59;1803778;79;21349;-78
2021/04/20 01:49:04;;;;;;;42.80;27.35;;;;;;;9.51;72.17;100304.84;1803716;79;21743;-78
2021/04/20 01:51:33;;;;;;;47.50;29.48;;;;;;;9.49;72.17;100292.32;1803649;79;20947;-76
2021/04/20 01:54:01;;;;;;;52.58;30.90;;;;;;;9.49;72.43;100293.63;1803691;79;20979;-79
2021/04/20 01:56:29;;;;;;;54.23;29.63;;;;;;;9.47;72.46;100288.95;1803616;79;20927;-77
2021/04/20 01:58:59;;;;;;;52.03;29.42;;;;;;;9.45;72.54;100287.76;1803764;79;20927;-78
2021/04/20 02:01:28;;;;;;;50.85;29.57;;;;;;;9.42;72.43;100279.23;1781653;79;21203;-77
2021/04/20 02:03:56;;;;;;;50.98;27.85;;;;;;;9.40;72.46;100273.25;1807795;79;20931;-76
2021/04/20 02:06:25;;;;;;;50.85;28.60;;;;;;;9.36;72.55;100280.47;1813138;79;20903;-77
2021/04/20 02:08:53;;;;;;;70.57;35.92;;;;;;;9.34;72.66;100275.79;1813038;79;20983;-78
2021/04/20 02:11:23;;;;;;;64.82;34.98;;;;;;;9.30;72.88;100273.81;1813048;78;20978;-77
2021/04/20 02:13:51;;;;;;;61.83;32.20;;;;;;;9.28;73.04;100269.14;1813097;78;21373;-76
2021/04/20 02:16:20;;;;;;;67.85;35.92;;;;;;;9.25;73.06;100268.02;1812986;79;20935;-77
2021/04/20 02:18:51;;;;;;;58.05;32.17;;;;;;;9.23;72.94;100262.05;1813452;79;20947;-77
2021/04/20 02:21:19;;;;;;;56.10;31.35;;;;;;;9.20;73.01;100253.52;1813186;78;21484;-78
2021/04/20 02:23:48;;;;;;;64.95;31.90;;;;;;;9.18;73.27;100241.00;1813084;78;20903;-77
2021/04/20 02:26:30;;;;;;;66.40;33.60;;;;;;;9.12;73.55;100234.38;1813095;79;21787;-76
2021/04/20 02:29:00;;;;;;;64.85;31.45;;;;;;;9.11;73.84;100225.70;1801256;79;21077;-75
2021/04/20 02:31:29;;;;;;;72.62;34.48;;;;;;;9.13;73.93;100212.03;1813153;79;20943;-77
2021/04/20 02:33:58;;;;;;;56.65;31.48;;;;;;;9.13;73.78;100208.11;1784120;79;20919;-75
2021/04/20 02:36:26;;;;;;;57.67;30.30;;;;;;;9.14;73.73;100206.36;1813194;79;20923;-77
2021/04/20 02:38:55;;;;;;;60.67;29.57;;;;;;;9.12;73.61;100212.98;1813189;79;21168;-76
2021/04/20 02:41:25;;;;;;;59.33;30.25;;;;;;;9.10;73.53;100210.08;1813247;78;20955;-76
2021/04/20 02:43:53;;;;;;;56.55;29.55;;;;;;;9.05;73.63;100222.61;1813548;79;20991;-75
2021/04/20 02:46:21;;;;;;;57.85;29.82;;;;;;;9.00;73.79;100218.09;1813822;78;21022;-75
2021/04/20 02:48:50;;;;;;;61.45;32.30;;;;;;;8.97;73.94;100211.76;1815117;79;20938;-76
2021/04/20 02:51:19;;;;;;;60.95;33.45;;;;;;;8.95;74.04;100217.55;1815217;79;21794;-76
2021/04/20 02:53:47;;;;;;;54.70;30.65;;;;;;;8.95;74.11;100203.16;1815479;79;21128;-76
2021/04/20 02:56:17;;;;;;;54.60;30.75;;;;;;;8.94;74.26;100202.33;1786686;77;20964;-77
2021/04/20 02:58:45;;;;;;;58.95;30.00;;;;;;;8.93;74.32;100201.93;1787441;78;21018;-78
2021/04/20 03:01:24;;;;;;;56.58;30.72;;;;;;;8.93;74.27;100200.63;1813364;79;21034;-76
2021/04/20 03:03:53;;;;;;;52.93;28.38;;;;;;;;;;1809861;79;21199;-76
2021/04/20 03:06:21;;;;;;;52.23;28.15;;;;;;;8.91;74.48;100210.33;1803610;79;21499;-77
2021/04/20 03:08:50;;;;;;;47.13;26.55;;;;;;;8.91;74.53;100211.20;1803818;79;21377;-79
2021/04/20 03:11:37;;;;;;;32.35;21.35;;;;;;;8.91;74.44;100207.28;1803670;79;21333;-78
2021/04/20 03:14:06;;;;;;;29.10;19.95;;;;;;;8.91;74.27;100202.05;1803627;79;20943;-78
2021/04/20 03:16:34;;;;;;;26.95;17.85;;;;;;;8.92;74.13;100196.34;1803592;79;21814;-80
2021/04/20 03:19:04;;;;;;;26.25;17.52;;;;;;;8.89;73.99;100194.76;1803520;79;21011;-78
2021/04/20 03:21:32;;;;;;;25.10;16.45;;;;;;;8.90;73.84;100194.28;1803800;79;21006;-78
2021/04/20 03:24:02;;;;;;;30.68;19.40;;;;;;;8.88;73.76;100205.30;1804189;79;20923;-77
2021/04/20 03:26:40;;;;;;;26.02;17.75;;;;;;;8.83;73.82;100196.42;1804226;79;21057;-77
2021/04/20 03:29:10;;;;;;;27.42;19.23;;;;;;;8.83;73.90;100195.12;1803693;79;21366;-76
2021/04/20 03:31:39;;;;;;;36.15;21.57;;;;;;;8.83;73.92;100189.05;1803524;79;20966;-78
2021/04/20 03:34:35;;;;;;;30.30;20.25;;;;;;;8.87;73.87;100191.39;1803629;79;21385;-79
2021/04/20 03:37:13;;;;;;;42.98;22.45;;;;;;;8.90;73.75;100189.89;1803132;79;21437;-79
2021/04/20 03:39:46;;;;;;;33.45;21.40;;;;;;;8.93;73.62;100188.38;1802916;79;21463;-76
2021/04/20 03:42:26;;;;;;;35.90;21.60;;;;;;;8.96;73.56;100191.75;1803547;79;21349;-79
2021/04/20 03:45:05;;;;;;;39.25;21.25;;;;;;;8.95;73.61;100184.38;1803341;79;20955;-77
2021/04/20 03:47:40;;;;;;;33.85;20.62;;;;;;;8.95;73.63;100188.78;1803529;79;21018;-77
2021/04/20 03:50:32;;;;;;;36.13;20.75;;;;;;;8.99;73.74;100195.03;1803563;79;20943;-77
2021/04/20 03:53:06;;;;;;;34.78;22.70;;;;;;;9.02;73.74;100182.23;1785323;79;21097;-77
2021/04/20 03:55:36;;;;;;;39.85;23.55;;;;;;;9.06;73.72;100187.19;1803195;79;22248;-78
2021/04/20 03:58:05;;;;;;;36.88;21.07;;;;;;;9.09;73.78;100171.33;1803528;79;21423;-78
2021/04/20 04:00:33;;;;;;;37.75;21.35;;;;;;;9.10;73.67;100167.76;1803572;79;20943;-78
2021/04/20 04:03:01;;;;;;;38.65;21.12;;;;;;;9.12;73.64;100165.89;1803572;79;21763;-78
2021/04/20 04:05:30;;;;;;;31.45;21.02;;;;;;;9.14;73.62;100169.73;1756173;79;20931;-77
2021/04/20 04:08:00;;;;;;;32.78;19.98;;;;;;;9.13;73.70;100164.11;1781421;79;21297;-77
2021/04/20 04:10:30;;;;;;;31.00;20.10;;;;;;;9.12;73.81;100157.21;1803567;79;20927;-77
2021/04/20 04:13:02;;;;;;;32.28;20.90;;;;;;;9.15;73.80;100150.47;1803634;79;20919;-76
2021/04/20 04:15:32;;;;;;;33.00;20.52;;;;;;;9.22;73.71;100143.08;1803650;79;20939;-78
2021/04/20 04:18:03;;;;;;;30.10;18.48;;;;;;;9.27;73.59;100137.95;1803699;79;20947;-77
2021/04/20 04:20:31;;;;;;;20.65;15.20;;;;;;;9.31;73.47;100139.41;1781034;79;21415;-77
2021/04/20 04:23:04;;;;;;;18.82;14.83;;;;;;;9.34;73.18;100139.24;1803596;79;21393;-77
2021/04/20 04:25:37;;;;;;;21.35;16.30;;;;;;;9.36;72.81;100135.23;1803547;79;20967;-79
2021/04/20 04:28:06;;;;;;;22.58;16.00;;;;;;;9.37;72.75;100130.36;1803583;79;20955;-78
2021/04/20 04:30:35;;;;;;;21.45;14.83;;;;;;;9.40;72.79;100132.77;1781393;79;21432;-79
2021/04/20 04:33:03;;;;;;;25.82;17.85;;;;;;;9.42;72.79;100133.98;1803570;79;21031;-78
2021/04/20 04:35:34;;;;;;;28.20;19.30;;;;;;;9.42;72.78;100130.06;1803438;79;20987;-78
2021/04/20 04:38:02;;;;;;;27.50;19.90;;;;;;;9.45;72.74;100127.23;1803646;79;21010;-80
2021/04/20 04:40:32;;;;;;;27.87;19.57;;;;;;;9.49;72.72;100124.36;1803365;79;21042;-78
2021/04/20 04:43:00;;;;;;;28.52;21.07;;;;;;;9.53;72.61;100125.82;1803477;79;20943;-77
2021/04/20 04:45:29;;;;;;;27.70;19.75;;;;;;;9.53;72.53;100121.89;1803561;79;21130;-76
2021/04/20 04:47:58;;;;;;;26.87;17.07;;;;;;;9.56;72.67;100116.95;1803486;79;21093;-76
2021/04/20 04:50:26;;;;;;;23.42;15.20;;;;;;;9.57;72.46;100113.39;1803630;79;20892;-77
2021/04/20 04:52:54;;;;;;;20.65;15.90;;;;;;;9.58;72.35;100112.44;1803496;79;21002;-77
2021/04/20 04:55:23;;;;;;;24.30;16.27;;;;;;;9.61;72.24;100109.64;1803597;79;21090;-76
2021/04/20 04:57:51;;;;;;;24.30;15.20;;;;;;;9.63;72.28;100101.70;1803064;79;21632;-78
2021/04/20 05:00:20;;;;;;;22.52;16.55;;;;;;;9.67;72.13;100101.84;1803404;79;20947;-79
2021/04/20 05:02:48;;;;;;;19.92;15.03;;;;;;;9.71;71.99;100104.64;1803491;79;21047;-77
2021/04/20 05:05:16;;;;;;;21.95;15.48;;;;;;;9.74;71.76;100097.91;1755847;79;20888;-77
2021/04/20 05:07:45;;;;;;;20.90;14.70;;;;;;;9.75;71.61;100099.10;1749972;79;20975;-77
2021/04/20 05:10:14;;;;;;;19.57;16.32;;;;;;;9.78;71.86;100097.22;1803716;79;22285;-78
2021/04/20 05:12:42;;;;;;;20.57;14.60;;;;;;;9.80;71.95;100097.97;1803610;79;21467;-79
2021/04/20 05:15:16;;;;;;;24.67;15.80;;;;;;;9.80;72.03;100083.56;1803393;79;21001;-79
2021/04/20 05:18:51;;;;;;;32.25;14.45;;;;;;;9.86;72.04;100090.55;1816009;79;22598;-77
2021/04/20 05:21:22;;;;;;;16.12;14.40;;;;;;;9.84;71.99;100081.95;1788999;80;20937;-78
2021/04/20 05:23:53;;;;;;;19.40;14.10;;;;;;;9.91;71.78;100085.01;1789212;80;22215;-77
2021/04/20 05:26:21;;;;;;;17.52;13.45;;;;;;;9.94;71.62;100090.89;1789306;80;20950;-77
2021/04/20 05:28:50;;;;;;;21.07;13.90;;;;;;;9.97;71.41;100081.99;1791197;80;20947;-76
2021/04/20 05:31:19;;;;;;;15.78;13.68;;;;;;;10.01;71.29;100079.55;1792551;80;21116;-77
2021/04/20 05:34:00;;;;;;;23.05;13.48;;;;;;;10.05;71.17;100073.16;1792241;80;20955;-77
2021/04/20 05:36:29;;;;;;;16.57;13.00;;;;;;;10.07;71.23;100072.59;1790757;80;21136;-76
2021/04/20 05:38:59;;;;;;;17.90;13.95;;;;;;;10.12;71.26;100076.22;1790053;80;21443;-77
2021/04/20 05:41:31;;;;;;;18.35;13.43;;;;;;;10.15;71.29;100073.38;1789234;80;21006;-77
2021/04/20 05:44:01;;;;;;;17.50;13.95;;;;;;;10.19;71.30;100074.02;1789310;80;21550;-78
2021/04/20 05:46:29;;;;;;;18.62;14.40;;;;;;;10.23;71.18;100071.09;1789211;80;21484;-78
2021/04/20 05:48:57;;;;;;;17.50;14.68;;;;;;;10.29;70.82;100074.65;1789363;80;21563;-78
2021/04/20 05:51:25;;;;;;;19.15;15.10;;;;;;;10.34;70.41;100073.85;1789185;80;21046;-80
2021/04/20 05:53:53;;;;;;;18.80;14.13;;;;;;;10.33;70.31;100074.78;1789190;80;21127;-77
2021/04/20 05:56:24;;;;;;;20.08;14.90;;;;;;;10.31;70.19;100075.35;1789134;80;20935;-77
2021/04/20 05:58:55;;;;;;;17.40;14.95;;;;;;;10.31;70.04;100076.66;1789305;80;20947;-78
2021/04/20 06:01:25;;;;;;;21.62;14.70;;;;;;;10.32;69.91;100086.70;1789286;80;21194;-78
2021/04/20 06:03:55;;;;;;;18.85;13.95;;;;;;;10.31;69.86;100090.25;1790023;80;20964;-81
2021/04/20 06:06:23;;;;;;;18.87;15.70;;;;;;;10.30;69.86;100093.82;1790332;80;21087;-78
2021/04/20 06:08:53;;;;;;;23.00;15.38;;;;;;;10.28;69.60;100091.74;1789628;80;21340;-78
2021/04/20 06:11:21;;;;;;;23.55;14.70;;;;;;;10.25;69.92;100083.63;1789103;80;20946;-77
2021/04/20 06:13:52;;;;;;;19.17;15.25;;;;;;;10.29;70.24;100085.13;1789219;80;22085;-79
2021/04/20 06:16:21;;;;;;;27.82;16.77;;;;;;;10.34;70.19;100092.68;1788890;80;20946;-78
2021/04/20 06:18:51;;;;;;;21.77;16.95;;;;;;;10.35;70.14;100094.34;1777240;80;21042;-80
2021/04/20 06:21:20;;;;;;;21.87;15.18;;;;;;;10.37;70.20;100086.73;1754293;80;21461;-77
2021/04/20 06:23:52;;;;;;;18.82;14.85;;;;;;;10.42;70.17;100091.67;1775570;80;20927;-80
2021/04/20 06:26:20;;;;;;;19.42;15.13;;;;;;;10.46;70.51;100094.45;1754572;80;21315;-77
2021/04/20 06:28:48;;;;;;;18.10;14.68;;;;;;;10.53;70.45;100097.02;1775302;80;20955;-76
2021/04/20 06:31:18;;;;;;;17.52;14.47;;;;;;;10.61;70.44;100092.58;1775073;80;20979;-78
2021/04/20 06:33:46;;;;;;;20.52;15.32;;;;;;;10.73;70.50;100096.12;1753486;80;20963;-79
2021/04/20 06:36:15;;;;;;;20.82;15.72;;;;;;;10.81;70.41;100096.92;1775156;80;20999;-78
2021/04/20 06:38:44;;;;;;;18.77;15.13;;;;;;;10.88;70.45;100099.00;1775130;80;22243;-77
2021/04/20 06:41:12;;;;;;;21.10;16.40;;;;;;;10.93;70.21;100099.52;1775036;80;20911;-77
2021/04/20 06:43:55;;;;;;;22.00;15.65;;;;;;;10.93;70.04;100098.68;1751249;80;20971;-77
2021/04/20 06:46:28;;;;;;;28.70;16.23;;;;;;;10.98;69.75;100101.81;1775022;80;20948;-77
2021/04/20 06:49:04;;;;;;;19.55;15.55;;;;;;;11.03;69.93;100092.30;1775310;80;20991;-75
2021/04/20 06:51:38;;;;;;;17.23;15.05;;;;;;;11.07;69.67;100092.01;1775254;80;21457;-78
2021/04/20 06:54:27;;;;;;;28.95;18.77;;;;;;;11.17;69.56;100081.69;1775070;80;21015;-75
2021/04/20 06:57:11;;;;;;;28.00;20.20;;;;;;;11.23;69.16;100081.25;1774877;80;21077;-74
2021/04/20 07:00:10;;;;;;;27.25;20.80;;;;;;;11.25;68.89;100090.31;1774986;80;21369;-74
2021/04/20 07:03:07;;;;;;;28.52;21.05;;;;;;;11.20;69.31;100088.02;1775216;80;21594;-76
2021/04/20 07:05:43;;;;;;;29.95;20.30;;;;;;;11.17;69.70;100073.81;1748687;81;21376;-77
2021/04/20 07:08:46;;;;;;;31.15;20.68;;;;;;;11.17;69.69;100072.02;1750913;82;20974;-75
2021/04/20 07:11:14;;;;;;;24.85;19.95;;;;;;;11.15;70.13;100067.35;1750473;82;21056;-75
2021/04/20 07:13:45;;;;;;;27.15;20.82;;;;;;;11.17;70.07;100062.00;1750073;82;21030;-76
2021/04/20 07:16:32;;;;;;;28.07;22.15;;;;;;;11.16;70.55;100058.55;1751187;82;21033;-74
2021/04/20 07:19:42;;;;;;;28.70;22.13;;;;;;;11.16;71.01;100053.75;1751339;82;21375;-77
2021/04/20 07:22:49;;;;;;;30.90;24.32;;;;;;;11.20;70.90;100050.82;1748880;82;21033;-75
2021/04/20 07:25:41;;;;;;;31.85;22.35;;;;;;;11.15;71.17;100041.11;1748655;82;21029;-76
2021/04/20 07:28:30;;;;;;;28.15;22.45;;;;;;;11.16;71.54;100038.00;1747784;82;20993;-77
2021/04/20 07:31:17;;;;;;;31.17;21.75;;;;;;;11.15;71.69;100029.30;1748719;82;21568;-77
2021/04/20 07:34:34;;;;;;;35.80;23.30;;;;;;;11.12;71.76;100028.22;1748512;82;21205;-76
2021/04/20 07:37:46;;;;;;;24.82;22.10;;;;;;;11.19;72.15;100019.42;1852338;77;23274;-78
2021/04/20 07:40:34;;;;;;;26.77;23.73;;;;;;;11.16;72.15;100021.80;1820076;78;20950;-76
2021/04/20 07:43:45;;;;;;;34.70;24.80;;;;;;;11.21;72.16;100010.97;1750131;81;21151;-76
2021/04/20 07:46:22;;;;;;;30.65;22.77;;;;;;;11.26;72.21;100006.22;1820042;78;21010;-79
2021/04/20 07:49:21;;;;;;;29.52;23.02;;;;;;;11.29;72.18;100000.73;1750237;81;21081;-80
2021/04/20 07:52:04;;;;;;;30.68;24.40;;;;;;;11.33;72.43;99994.80;1803310;78;21006;-78
2021/04/20 07:54:55;;;;;;;34.67;25.82;;;;;;;11.37;72.69;99997.56;1750208;81;21002;-78
2021/04/20 07:57:29;;;;;;;29.63;25.95;;;;;;;11.39;72.59;99991.73;1820109;78;21416;-78
2021/04/20 08:00:21;;;;;;;;;;;;;;;11.44;72.71;99990.91;1752747;82;20978;-78
2021/04/20 08:03:00;;;;;;;31.30;24.25;;;;;;;11.52;72.46;99991.19;1781208;80;20424;-77
2021/04/20 08:05:50;;;;;;;33.85;26.37;;;;;;;11.59;72.30;99985.83;1815393;78;21010;-76
2021/04/20 08:08:50;;;;;;;29.85;25.35;;;;;;;11.69;72.22;99986.45;1818110;78;20927;-78
2021/04/20 08:11:28;;;;;;;35.83;28.10;;;;;;;11.82;72.22;99984.58;1750166;82;21370;-77
2021/04/20 08:14:25;;;;;;;33.53;26.73;;;;;;;11.89;71.92;99979.25;1820039;78;21112;-77
2021/04/20 08:17:28;;;;;;;38.70;30.77;;;;;;;11.99;71.60;99972.84;1820057;78;20994;-77
2021/04/20 08:20:11;;;;;;;36.25;27.52;;;;;;;12.08;71.67;99967.36;1820560;78;20993;-77
2021/04/20 08:22:39;;;;;;;28.80;24.47;;;;;;;12.12;71.28;99966.17;1817866;78;20915;-76
2021/04/20 08:25:30;;;;;;;28.40;23.40;;;;;;;12.17;71.11;99966.64;1747049;82;21463;-78
2021/04/20 08:28:22;;;;;;;31.57;24.82;;;;;;;12.20;71.20;99959.82;1820533;78;21370;-76
2021/04/20 08:31:06;;;;;;;41.13;26.97;;;;;;;12.24;70.72;99945.00;1750484;81;20903;-77
2021/04/20 08:33:38;;;;;;;28.42;25.40;;;;;;;12.31;70.55;99948.48;1820420;78;21391;-76
2021/04/20 08:36:29;;;;;;;;;;;;;;;12.37;70.07;99944.89;1753439;82;21003;-78
2021/04/20 08:39:42;;;;;;;29.77;26.40;;;;;;;12.39;69.63;99936.41;1782349;80;21352;-78
2021/04/20 08:42:40;;;;;;;29.10;26.10;;;;;;;12.43;69.88;99939.16;1781820;80;20947;-77
2021/04/20 08:45:24;;;;;;;27.52;24.65;;;;;;;12.51;70.05;99932.45;1781899;80;20955;-77
2021/04/20 08:48:16;;;;;;;26.97;24.20;;;;;;;12.47;70.43;99931.02;1781427;80;20966;-78
2021/04/20 08:50:50;;;;;;;29.80;25.97;;;;;;;12.51;70.53;99931.13;1743983;80;20994;-77
2021/04/20 08:53:30;;;;;;;27.62;24.70;;;;;;;12.52;70.39;99930.19;1731984;80;22281;-79
2021/04/20 08:56:16;;;;;;;31.85;26.70;;;;;;;12.53;70.01;99927.42;1781771;80;20966;-77
2021/04/20 08:59:20;;;;;;;28.12;24.87;;;;;;;12.54;69.61;99922.98;1781312;80;20999;-78
2021/04/20 09:02:20;;;;;;;32.58;27.05;;;;;;;12.52;69.54;99913.92;1781490;80;20972;-76
2021/04/20 09:05:19;;;;;;;29.10;24.20;;;;;;;12.44;69.65;99909.26;1781305;80;20963;-75
2021/04/20 09:08:25;;;;;;;26.07;22.15;;;;;;;12.42;69.34;99901.14;1781244;80;21208;-77
2021/04/20 09:11:29;;;;;;;25.60;21.68;;;;;;;12.36;69.48;99898.98;1755028;80;20994;-76
2021/04/20 09:14:07;;;;;;;27.77;22.40;;;;;;;12.32;69.88;99893.16;1781315;80;20964;-77
2021/04/20 09:16:53;;;;;;;25.97;22.60;;;;;;;12.31;69.80;99890.16;1780950;80;21622;-77
2021/04/20 09:19:47;;;;;;;30.25;25.62;;;;;;;12.29;69.63;99889.44;1781328;80;20900;-78
2021/04/20 09:22:56;;;;;;;32.08;24.70;;;;;;;12.24;70.45;99892.43;1759008;80;21264;-76
2021/04/20 09:25:44;;;;;;;34.55;26.57;;;;;;;12.28;70.42;99885.63;1781245;80;21019;-77
2021/04/20 09:28:34;;;;;;;27.52;23.87;;;;;;;12.31;70.38;99886.20;1781400;80;21074;-80
2021/04/20 09:31:16;;;;;;;29.00;24.23;;;;;;;12.31;70.32;99881.44;1781199;80;21018;-76
2021/04/20 09:33:54;;;;;;;24.77;22.17;;;;;;;12.28;70.45;99880.38;1756100;80;21011;-75
2021/04/20 09:36:23;;;;;;;26.15;21.77;;;;;;;12.20;70.80;99872.59;1783124;80;21183;-75
2021/04/20 09:38:52;;;;;;;27.02;24.15;;;;;;;12.18;71.31;99871.05;1786225;80;21038;-75
2021/04/20 09:41:30;;;;;;;25.35;22.60;;;;;;;12.21;71.29;99870.34;1786315;80;20962;-75
2021/04/20 09:44:19;;;;;;;30.10;25.45;;;;;;;12.27;71.45;99858.97;1786068;80;20946;-77
2021/04/20 09:46:59;;;;;;;26.60;23.70;;;;;;;12.34;71.55;99859.69;1786208;80;21010;-75
2021/04/20 09:50:03;;;;;;;26.87;22.02;;;;;;;12.42;71.53;99855.13;1786276;80;21492;-76
2021/04/20 09:52:42;;;;;;;24.00;21.42;;;;;;;12.43;71.56;99852.87;1786222;80;20934;-75
2021/04/20 09:55:18;;;;;;;24.98;20.35;;;;;;;12.44;71.74;99854.52;1785857;80;20919;-77
2021/04/20 09:57:48;;;;;;;25.90;23.22;;;;;;;12.48;71.84;99852.01;1786009;80;20962;-76
2021/04/20 10:00:16;;;;;;;27.35;23.20;;;;;;;12.48;71.76;99841.49;1783593;80;21010;-76
2021/04/20 10:03:25;;;;;;;30.52;25.27;;;;;;;12.52;71.55;99835.52;1786410;80;21417;-76
2021/04/20 10:06:16;;;;;;;28.15;24.25;;;;;;;12.53;71.72;99838.00;1782362;80;21575;-74
2021/04/20 10:08:59;;;;;;;25.92;23.15;;;;;;;12.54;71.50;99830.94;1786266;80;20962;-76
2021/04/20 10:11:44;;;;;;;27.90;23.18;;;;;;;12.54;71.68;99832.25;1786240;80;21365;-76
2021/04/20 10:14:56;;;;;;;25.77;23.05;;;;;;;12.56;71.73;99821.13;1786185;80;21062;-77
2021/04/20 10:17:39;;;;;;;26.35;23.30;;;;;;;12.58;72.05;99822.70;1786198;80;21197;-77
2021/04/20 10:20:20;;;;;;;27.27;23.65;;;;;;;12.54;72.43;99812.07;1786216;80;21393;-75
2021/04/20 10:23:29;;;;;;;28.40;25.32;;;;;;;12.50;72.35;99816.39;1786942;80;21708;-78
2021/04/20 10:26:04;;;;;;;27.48;24.50;;;;;;;12.38;72.86;99811.63;1785709;80;20946;-80
2021/04/20 10:28:41;;;;;;;27.75;23.98;;;;;;;12.32;73.08;99802.45;1786776;80;21046;-80
2021/04/20 10:31:14;;;;;;;27.37;22.58;;;;;;;12.27;72.99;99805.91;1786434;80;21485;-81
2021/04/20 10:33:42;;;;;;;25.92;23.32;;;;;;;12.25;73.39;99799.97;1786222;80;21097;-79
2021/04/20 10:36:11;;;;;;;26.35;23.47;;;;;;;12.23;73.69;99801.88;1786128;80;20982;-78
2021/04/20 10:38:39;;;;;;;26.87;24.18;;;;;;;12.20;73.78;99799.48;1786362;80;21510;-80
2021/04/20 10:41:28;;;;;;;27.48;24.43;;;;;;;12.13;74.06;99794.36;1786393;80;20942;-81
2021/04/20 10:43:57;;;;;;;30.90;24.02;;;;;;;12.10;74.17;99794.62;1786576;80;21272;-82
2021/04/20 10:46:27;;;;;;;26.25;22.58;;;;;;;12.07;74.49;99790.41;1786446;80;21062;-82
2021/04/20 10:48:57;;;;;;;23.42;20.97;;;;;;;12.02;74.75;99789.95;1786326;80;21014;-80
2021/04/20 10:51:38;;;;;;;25.90;23.10;;;;;;;12.04;75.30;99784.09;1786383;80;21487;-79
2021/04/20 10:54:09;;;;;;;27.85;24.12;;;;;;;12.06;75.48;99781.36;1786468;80;21014;-81
2021/04/20 10:56:48;;;;;;;31.68;27.05;;;;;;;12.11;75.86;99780.02;1786855;80;21574;-80
2021/04/20 10:59:36;;;;;;;27.90;24.00;;;;;;;12.14;75.88;99774.53;1761158;80;21376;-77
2021/04/20 11:02:20;;;;;;;26.12;23.32;;;;;;;12.16;75.54;99773.08;1786645;80;21058;-81
2021/04/20 11:04:53;;;;;;;26.48;22.60;;;;;;;12.14;75.88;99768.42;1786337;80;21396;-80
2021/04/20 11:07:42;;;;;;;26.82;23.83;;;;;;;12.13;75.96;99770.70;1786339;80;21472;-80
2021/04/20 11:10:12;;;;;;;27.17;24.30;;;;;;;12.17;76.02;99766.39;1786187;80;21379;-78
2021/04/20 11:12:49;;;;;;;30.70;24.23;;;;;;;12.17;76.09;99767.70;1786174;80;20942;-79
2021/04/20 11:15:29;;;;;;;28.55;25.27;;;;;;;12.13;76.14;99758.88;1786171;80;20899;-80
2021/04/20 11:18:12;;;;;;;29.63;26.17;;;;;;;12.11;76.37;99760.31;1786033;80;21353;-80
2021/04/20 11:20:46;;;;;;;27.10;24.23;;;;;;;12.13;76.56;99753.14;1786323;80;21503;-80
2021/04/20 11:23:21;;;;;;;27.15;23.05;;;;;;;12.13;76.59;99744.42;1786584;80;22280;-77
2021/04/20 11:25:57;;;;;;;27.10;24.27;;;;;;;12.11;76.86;99747.16;1786297;80;20970;-78
2021/04/20 11:28:48;;;;;;;26.42;22.55;;;;;;;12.11;76.79;99746.34;1786065;80;20943;-76
2021/04/20 11:31:27;;;;;;;30.85;26.23;;;;;;;12.08;76.86;99752.68;1786194;80;20993;-77
2021/04/20 11:34:19;;;;;;;32.60;28.90;;;;;;;12.06;77.14;99739.31;1787117;80;20998;-78
2021/04/20 11:37:04;;;;;;;35.48;29.85;;;;;;;12.07;77.42;99727.83;1785024;80;21438;-77
2021/04/20 11:39:38;;;;;;;29.07;26.05;;;;;;;12.07;77.42;99725.20;1819663;78;21084;-77
2021/04/20 11:42:23;;;;;;;28.57;25.43;;;;;;;12.08;77.31;99725.57;1819655;78;21026;-77
2021/04/20 11:44:52;;;;;;;28.35;24.55;;;;;;;12.00;77.56;99720.43;1749247;81;20975;-78
2021/04/20 11:47:20;;;;;;;27.98;24.98;;;;;;;11.93;78.01;99722.38;1811334;78;21350;-78
2021/04/20 11:49:50;;;;;;;27.65;23.95;;;;;;;11.92;78.39;99712.84;1776646;80;21451;-76
2021/04/20 11:52:22;;;;;;;29.77;25.97;;;;;;;11.94;78.61;99711.75;1776084;80;20943;-74
2021/04/20 11:54:57;;;;;;;29.50;26.42;;;;;;;11.98;78.83;99705.75;1775996;80;20951;-76
2021/04/20 11:57:25;;;;;;;30.82;27.45;;;;;;;12.04;78.95;99709.20;1776251;80;21449;-76
2021/04/20 11:59:53;;;;;;;27.80;24.25;;;;;;;12.09;78.84;99700.45;1776070;80;21424;-77